createdAt,value
2023-05-21T00:01:21.795Z,11.82
2023-05-21T00:03:50.339Z,11.23
2023-05-21T00:06:17.723Z,11.95
2023-05-21T00:08:44.830Z,12.68
2023-05-21T00:11:11.679Z,11.05
2023-05-21T00:13:39.194Z,11.23
2023-05-21T00:16:06.937Z,10.75
2023-05-21T00:18:34.464Z,10.98
2023-05-21T00:21:01.975Z,9.43
2023-05-21T00:23:30.734Z,10.25
2023-05-21T00:25:58.005Z,9.82
2023-05-21T00:28:25.257Z,9.15
2023-05-21T00:30:52.070Z,9.43
2023-05-21T00:33:18.777Z,9.15
2023-05-21T00:35:46.733Z,9.30
2023-05-21T00:38:14.664Z,9.60
2023-05-21T00:40:41.951Z,8.70
2023-05-21T00:43:10.645Z,10.23
2023-05-21T00:45:38.147Z,9.82
2023-05-21T00:48:06.945Z,11.32
2023-05-21T00:50:34.563Z,10.65
2023-05-21T00:53:01.832Z,9.90
2023-05-21T00:55:29.189Z,9.00
2023-05-21T00:57:56.500Z,9.77
2023-05-21T01:00:26.842Z,10.00
2023-05-21T01:02:54.393Z,10.52
2023-05-21T01:05:22.738Z,10.23
2023-05-21T01:07:50.159Z,11.88
2023-05-21T01:10:17.666Z,11.35
2023-05-21T01:12:46.321Z,10.70
2023-05-21T01:15:13.605Z,10.45
2023-05-21T01:17:41.827Z,11.07
2023-05-21T01:20:12.246Z,11.13
2023-05-21T01:22:49.786Z,10.38
2023-05-21T01:25:17.218Z,11.10
2023-05-21T01:27:44.806Z,10.48
2023-05-21T01:30:13.904Z,11.38
2023-05-21T01:32:43.968Z,9.38
2023-05-21T01:35:18.078Z,8.32
2023-05-21T01:38:05.832Z,9.45
2023-05-21T01:40:48.856Z,8.45
2023-05-21T01:43:16.975Z,9.27
2023-05-21T01:45:45.455Z,9.38
2023-05-21T01:48:14.111Z,9.40
2023-05-21T01:50:43.864Z,8.68
2023-05-21T01:53:11.167Z,9.35
2023-05-21T01:55:42.306Z,7.93
2023-05-21T01:58:09.653Z,7.70
2023-05-21T02:00:37.949Z,8.40
2023-05-21T02:03:05.109Z,6.82
2023-05-21T02:05:32.428Z,8.05
2023-05-21T02:08:00.267Z,8.07
2023-05-21T02:10:27.787Z,7.88
2023-05-21T02:12:55.143Z,7.28
2023-05-21T02:15:22.920Z,7.82
2023-05-21T02:17:51.757Z,6.85
2023-05-21T02:20:19.580Z,6.88
2023-05-21T02:22:48.397Z,7.47
2023-05-21T02:25:17.632Z,7.53
2023-05-21T02:27:45.189Z,7.57
2023-05-21T02:30:14.570Z,7.15
2023-05-21T02:32:43.731Z,7.22
2023-05-21T02:35:12.980Z,6.63
2023-05-21T02:37:41.297Z,6.68
2023-05-21T02:40:10.468Z,6.18
2023-05-21T02:42:40.375Z,7.05
2023-05-21T02:45:12.252Z,5.47
2023-05-21T02:47:39.603Z,6.25
2023-05-21T02:50:08.217Z,5.28
2023-05-21T02:52:35.648Z,5.07
2023-05-21T02:55:02.627Z,5.43
2023-05-21T02:57:29.870Z,5.03
2023-05-21T02:59:57.086Z,4.75
2023-05-21T03:02:24.465Z,4.78
2023-05-21T03:04:51.978Z,5.35
2023-05-21T03:07:20.313Z,5.03
2023-05-21T03:09:47.962Z,5.22
2023-05-21T03:12:14.970Z,4.80
2023-05-21T03:14:46.914Z,4.68
2023-05-21T03:17:17.555Z,4.45
2023-05-21T03:19:45.513Z,5.13
2023-05-21T03:22:12.847Z,5.22
2023-05-21T03:24:40.362Z,5.05
2023-05-21T03:27:08.581Z,4.72
2023-05-21T03:29:36.556Z,5.07
2023-05-21T03:32:04.161Z,4.93
2023-05-21T03:34:31.582Z,4.63
2023-05-21T03:36:58.789Z,4.45
2023-05-21T03:39:26.031Z,4.35
2023-05-21T03:41:53.284Z,5.43
2023-05-21T03:44:20.447Z,5.43
2023-05-21T03:46:47.211Z,5.47
2023-05-21T03:49:14.981Z,5.95
2023-05-21T03:51:42.238Z,6.45
2023-05-21T03:54:09.483Z,5.25
2023-05-21T03:56:36.671Z,5.80
2023-05-21T03:59:03.967Z,6.22
2023-05-21T04:01:31.158Z,5.80
2023-05-21T04:03:58.481Z,5.45
2023-05-21T04:06:25.922Z,5.43
2023-05-21T04:08:53.138Z,5.15
2023-05-21T04:11:20.637Z,4.45
2023-05-21T04:13:48.655Z,4.93
2023-05-21T04:16:19.653Z,5.78
2023-05-21T04:18:47.663Z,5.38
2023-05-21T04:21:15.415Z,5.00
2023-05-21T04:23:42.677Z,4.82
2023-05-21T04:26:09.939Z,4.60
2023-05-21T04:28:37.377Z,4.35
2023-05-21T04:31:06.167Z,4.57
2023-05-21T04:33:33.406Z,5.00
2023-05-21T04:36:00.981Z,4.50
2023-05-21T04:38:27.770Z,4.43
2023-05-21T04:40:56.131Z,4.57
2023-05-21T04:43:26.523Z,4.72
2023-05-21T04:45:57.407Z,4.25
2023-05-21T04:48:26.135Z,4.70
2023-05-21T04:50:54.104Z,4.00
2023-05-21T04:53:21.476Z,3.40
2023-05-21T04:55:49.295Z,3.55
2023-05-21T04:58:18.699Z,4.13
2023-05-21T05:00:51.305Z,3.50
2023-05-21T05:03:18.763Z,3.33
2023-05-21T05:05:46.673Z,3.92
2023-05-21T05:08:15.857Z,3.85
2023-05-21T05:10:43.703Z,3.55
2023-05-21T05:13:11.053Z,3.33
2023-05-21T05:15:38.557Z,3.47
2023-05-21T05:18:08.672Z,4.00
2023-05-21T05:20:36.313Z,4.07
2023-05-21T05:23:03.641Z,3.30
2023-05-21T05:25:30.996Z,3.47
2023-05-21T05:27:58.118Z,3.15
2023-05-21T05:30:25.417Z,3.22
2023-05-21T05:32:52.819Z,3.10
2023-05-21T05:35:20.200Z,3.35
2023-05-21T05:37:47.329Z,3.33
2023-05-21T05:40:14.703Z,3.05
2023-05-21T05:42:41.980Z,3.42
2023-05-21T05:45:09.947Z,3.33
2023-05-21T05:47:37.225Z,3.03
2023-05-21T05:50:04.702Z,2.95
2023-05-21T05:52:32.163Z,3.08
2023-05-21T05:54:59.455Z,4.07
2023-05-21T05:57:26.783Z,3.13
2023-05-21T05:59:53.979Z,4.03
2023-05-21T06:02:21.330Z,3.60
2023-05-21T06:04:48.602Z,3.40
2023-05-21T06:07:16.220Z,3.22
2023-05-21T06:09:43.496Z,3.03
2023-05-21T06:12:14.599Z,2.90
2023-05-21T06:14:45.168Z,3.20
2023-05-21T06:17:12.939Z,3.05
2023-05-21T06:19:40.381Z,3.30
2023-05-21T06:22:07.629Z,2.97
2023-05-21T06:24:34.916Z,3.03
2023-05-21T06:27:02.604Z,3.63
2023-05-21T06:29:30.009Z,3.40
2023-05-21T06:31:57.388Z,3.25
2023-05-21T06:34:24.594Z,2.65
2023-05-21T06:36:52.373Z,3.17
2023-05-21T06:39:19.753Z,3.20
2023-05-21T06:41:46.947Z,3.20
2023-05-21T06:44:15.221Z,2.80
2023-05-21T06:46:43.285Z,3.10
2023-05-21T06:49:14.056Z,2.67
2023-05-21T06:51:41.571Z,2.55
2023-05-21T06:54:08.811Z,2.88
2023-05-21T06:56:36.071Z,3.00
2023-05-21T06:59:03.266Z,2.40
2023-05-21T07:01:31.275Z,3.15
2023-05-21T07:03:58.540Z,2.58
2023-05-21T07:06:25.948Z,2.70
2023-05-21T07:08:53.253Z,3.75
2023-05-21T07:11:20.552Z,2.72
2023-05-21T07:13:47.405Z,2.65
2023-05-21T07:16:14.724Z,2.75
2023-05-21T07:18:42.082Z,2.72
2023-05-21T07:21:09.309Z,4.43
2023-05-21T07:23:36.702Z,3.05
2023-05-21T07:26:04.042Z,2.20
2023-05-21T07:28:31.207Z,2.80
2023-05-21T07:30:58.516Z,3.15
2023-05-21T07:33:25.630Z,2.70
2023-05-21T07:35:52.943Z,3.10
2023-05-21T07:38:20.355Z,2.40
2023-05-21T07:40:47.142Z,2.72
2023-05-21T07:43:14.424Z,2.28
2023-05-21T07:45:41.827Z,2.67
2023-05-21T07:48:09.170Z,2.78
2023-05-21T07:50:36.578Z,2.17
2023-05-21T07:53:04.278Z,2.60
2023-05-21T07:55:31.544Z,2.30
2023-05-21T07:57:58.362Z,2.47
2023-05-21T08:00:25.727Z,2.38
2023-05-21T08:02:53.083Z,2.25
2023-05-21T08:05:21.957Z,2.20
2023-05-21T08:07:49.167Z,2.30
2023-05-21T08:10:19.149Z,2.00
2023-05-21T08:12:46.685Z,3.08
2023-05-21T08:15:13.902Z,3.00
2023-05-21T08:17:41.621Z,2.35
2023-05-21T08:20:09.387Z,2.53
2023-05-21T08:22:36.770Z,2.35
2023-05-21T08:25:04.432Z,2.40
2023-05-21T08:27:31.712Z,2.60
2023-05-21T08:29:59.068Z,2.30
2023-05-21T08:32:26.577Z,2.05
2023-05-21T08:34:54.420Z,2.42
2023-05-21T08:37:22.268Z,2.35
2023-05-21T08:39:49.050Z,2.20
2023-05-21T08:42:49.923Z,2.88
2023-05-21T08:45:24.456Z,2.70
2023-05-21T08:47:59.147Z,2.25
2023-05-21T08:50:28.457Z,2.70
2023-05-21T08:52:56.033Z,2.80
2023-05-21T08:55:23.831Z,2.95
2023-05-21T08:57:51.058Z,2.30
2023-05-21T09:00:18.140Z,2.50
2023-05-21T09:02:46.635Z,2.88
2023-05-21T09:05:15.530Z,2.88
2023-05-21T09:07:56.278Z,2.20
2023-05-21T09:10:30.035Z,2.88
2023-05-21T09:12:57.660Z,2.42
2023-05-21T09:15:25.128Z,2.90
2023-05-21T09:17:52.299Z,2.33
2023-05-21T09:20:27.010Z,2.70
2023-05-21T09:22:55.888Z,3.45
2023-05-21T09:25:29.843Z,2.35
2023-05-21T09:27:57.321Z,2.45
2023-05-21T09:30:27.626Z,2.67
2023-05-21T09:32:58.988Z,2.50
2023-05-21T09:35:26.633Z,2.65
2023-05-21T09:37:54.353Z,2.63
2023-05-21T09:40:23.265Z,2.33
2023-05-21T09:42:55.091Z,2.72
2023-05-21T09:45:26.666Z,3.08
2023-05-21T09:47:55.523Z,2.72
2023-05-21T09:50:23.982Z,2.35
2023-05-21T09:52:53.226Z,2.70
2023-05-21T09:55:23.785Z,2.33
2023-05-21T09:57:51.981Z,2.67
2023-05-21T10:00:24.660Z,2.83
2023-05-21T10:02:56.973Z,2.80
2023-05-21T10:05:29.291Z,2.45
2023-05-21T10:08:08.528Z,2.77
2023-05-21T10:10:39.246Z,2.20
2023-05-21T10:13:09.807Z,2.58
2023-05-21T10:15:47.374Z,2.92
2023-05-21T10:18:17.247Z,2.38
2023-05-21T10:20:46.480Z,2.65
2023-05-21T10:23:14.668Z,2.80
2023-05-21T10:25:42.587Z,2.80
2023-05-21T10:28:11.177Z,2.65
2023-05-21T10:30:39.288Z,2.72
2023-05-21T10:33:07.040Z,3.38
2023-05-21T10:35:35.172Z,2.42
2023-05-21T10:38:05.640Z,2.60
2023-05-21T10:40:33.076Z,2.72
2023-05-21T10:43:30.254Z,2.78
2023-05-21T10:46:26.570Z,3.03
2023-05-21T10:49:02.829Z,6.07
2023-05-21T10:51:37.455Z,4.20
2023-05-21T10:54:25.912Z,3.80
2023-05-21T10:57:02.374Z,2.85
2023-05-21T10:59:35.711Z,3.92
2023-05-21T11:04:32.886Z,3.83
2023-05-21T11:07:00.249Z,3.50
2023-05-21T11:09:27.859Z,3.00
2023-05-21T11:11:59.479Z,3.33
2023-05-21T11:14:40.040Z,3.05
2023-05-21T11:17:14.107Z,3.15
2023-05-21T11:19:47.561Z,6.57
2023-05-21T11:22:24.250Z,3.30
2023-05-21T11:24:53.588Z,2.80
2023-05-21T11:27:34.067Z,3.53
2023-05-21T11:30:04.725Z,3.85
2023-05-21T11:32:32.142Z,2.97
2023-05-21T11:35:05.071Z,4.32
2023-05-21T11:37:33.909Z,3.30
2023-05-21T11:40:26.345Z,4.32
2023-05-21T11:42:57.485Z,3.53
2023-05-21T11:45:31.455Z,3.22
2023-05-21T11:47:59.358Z,2.47
2023-05-21T11:50:27.916Z,3.50
2023-05-21T11:52:55.245Z,8.27
2023-05-21T11:55:25.350Z,4.75
2023-05-21T11:57:55.753Z,3.70
2023-05-21T12:00:23.492Z,2.55
2023-05-21T12:02:54.046Z,2.35
2023-05-21T12:05:21.974Z,3.53
2023-05-21T12:07:52.979Z,5.68
2023-05-21T12:10:24.509Z,2.20
2023-05-21T12:12:56.324Z,3.35
2023-05-21T12:15:25.671Z,2.20
2023-05-21T12:17:56.467Z,2.15
2023-05-21T12:20:24.402Z,2.22
2023-05-21T12:22:51.866Z,3.75
2023-05-21T12:25:22.826Z,3.35
2023-05-21T12:27:53.026Z,3.80
2023-05-21T12:30:20.717Z,2.65
2023-05-21T12:32:49.595Z,2.70
2023-05-21T12:35:24.761Z,2.45
2023-05-21T12:37:52.700Z,2.80
2023-05-21T12:40:20.825Z,2.22
2023-05-21T12:42:48.555Z,1.98
2023-05-21T12:45:19.213Z,1.92
2023-05-21T12:47:50.723Z,2.30
2023-05-21T12:50:21.616Z,1.90
2023-05-21T12:52:48.903Z,1.90
2023-05-21T12:55:17.771Z,2.33
2023-05-21T12:57:45.143Z,1.80
2023-05-21T13:00:13.224Z,1.98
2023-05-21T13:02:44.942Z,3.17
2023-05-21T13:05:17.754Z,1.60
2023-05-21T13:07:47.859Z,1.25
2023-05-21T13:10:17.082Z,2.53
2023-05-21T13:12:45.588Z,2.05
2023-05-21T13:15:12.561Z,1.88
2023-05-21T13:17:39.765Z,1.77
2023-05-21T13:20:15.606Z,2.22
2023-05-21T13:22:48.559Z,1.67
2023-05-21T13:25:22.721Z,2.72
2023-05-21T13:27:51.277Z,1.95
2023-05-21T13:30:19.991Z,1.42
2023-05-21T13:32:48.094Z,2.92
2023-05-21T13:35:16.857Z,2.47
2023-05-21T13:37:45.350Z,1.60
2023-05-21T13:40:15.420Z,1.77
2023-05-21T13:42:47.551Z,1.65
2023-05-21T13:45:17.014Z,2.20
2023-05-21T13:47:46.847Z,1.90
2023-05-21T13:50:14.933Z,2.08
2023-05-21T13:52:41.655Z,1.98
2023-05-21T13:55:10.078Z,1.70
2023-05-21T13:57:37.352Z,1.92
2023-05-21T14:00:05.311Z,1.75
2023-05-21T14:02:32.533Z,1.95
2023-05-21T14:04:59.852Z,1.65
2023-05-21T14:07:27.417Z,1.65
2023-05-21T14:09:54.747Z,1.70
2023-05-21T14:12:22.856Z,1.70
2023-05-21T14:14:52.904Z,2.38
2023-05-21T14:17:19.956Z,1.83
2023-05-21T14:19:48.481Z,1.50
2023-05-21T14:22:15.953Z,1.70
2023-05-21T14:24:43.161Z,2.17
2023-05-21T14:27:10.747Z,2.00
2023-05-21T14:29:38.154Z,1.80
2023-05-21T14:32:05.690Z,2.10
2023-05-21T14:34:32.995Z,1.98
2023-05-21T14:37:00.161Z,1.90
2023-05-21T14:39:27.653Z,1.73
2023-05-21T14:41:55.078Z,1.75
2023-05-21T14:44:22.263Z,1.92
2023-05-21T14:46:49.534Z,2.28
2023-05-21T14:49:16.988Z,1.63
2023-05-21T14:51:45.368Z,1.80
2023-05-21T14:54:12.696Z,1.75
2023-05-21T14:56:40.396Z,1.90
2023-05-21T14:59:07.664Z,1.90
2023-05-21T15:01:34.498Z,1.80
2023-05-21T15:04:04.042Z,1.60
2023-05-21T15:06:31.335Z,1.80
2023-05-21T15:08:58.505Z,1.80
2023-05-21T15:11:26.055Z,2.08
2023-05-21T15:13:53.279Z,2.67
2023-05-21T15:16:20.494Z,2.63
2023-05-21T15:18:47.880Z,2.70
2023-05-21T15:21:15.178Z,1.92
2023-05-21T15:23:42.359Z,2.38
2023-05-21T15:26:09.747Z,1.80
2023-05-21T15:28:37.117Z,1.77
2023-05-21T15:31:04.600Z,2.28
2023-05-21T15:33:32.060Z,1.70
2023-05-21T15:35:59.441Z,1.90
2023-05-21T15:38:26.729Z,2.08
2023-05-21T15:40:54.308Z,1.90
2023-05-21T15:43:21.850Z,1.90
2023-05-21T15:45:49.198Z,1.83
2023-05-21T15:48:22.770Z,2.00
2023-05-21T15:50:50.506Z,2.50
2023-05-21T15:53:17.718Z,2.15
2023-05-21T15:55:45.282Z,2.47
2023-05-21T15:58:12.556Z,1.73
2023-05-21T16:00:40.025Z,2.00
2023-05-21T16:03:07.499Z,2.10
2023-05-21T16:05:34.992Z,2.10
2023-05-21T16:08:02.447Z,1.80
2023-05-21T16:10:29.794Z,2.55
2023-05-21T16:12:57.336Z,1.90
2023-05-21T16:15:24.534Z,1.95
2023-05-21T16:17:51.726Z,1.55
2023-05-21T16:20:19.273Z,1.80
2023-05-21T16:22:46.980Z,2.13
2023-05-21T16:25:14.188Z,2.10
2023-05-21T16:27:41.452Z,2.22
2023-05-21T16:30:09.205Z,1.77
2023-05-21T16:32:36.600Z,4.05
2023-05-21T16:35:04.309Z,1.55
2023-05-21T16:37:31.060Z,1.58
2023-05-21T16:39:58.318Z,1.85
2023-05-21T16:42:25.808Z,2.92
2023-05-21T16:44:53.083Z,1.65
2023-05-21T16:47:20.251Z,2.20
2023-05-21T16:49:47.543Z,2.25
2023-05-21T16:52:15.905Z,1.98
2023-05-21T16:54:44.752Z,2.15
2023-05-21T16:57:13.025Z,1.83
2023-05-21T16:59:40.166Z,2.10
2023-05-21T17:02:08.799Z,1.80
2023-05-21T17:04:35.755Z,1.60
2023-05-21T17:07:03.036Z,1.92
2023-05-21T17:09:30.377Z,2.00
2023-05-21T17:11:57.257Z,1.85
2023-05-21T17:14:33.674Z,1.95
2023-05-21T17:17:02.179Z,1.67
2023-05-21T17:19:28.994Z,1.80
2023-05-21T17:21:56.817Z,1.70
2023-05-21T17:24:24.053Z,1.63
2023-05-21T17:26:51.405Z,1.85
2023-05-21T17:29:19.049Z,1.80
2023-05-21T17:31:46.353Z,1.52
2023-05-21T17:34:13.612Z,2.35
2023-05-21T17:36:40.341Z,1.92
2023-05-21T17:39:08.093Z,1.65
2023-05-21T17:41:35.469Z,2.75
2023-05-21T17:44:02.783Z,2.05
2023-05-21T17:46:29.596Z,2.00
2023-05-21T17:48:56.999Z,1.63
2023-05-21T17:51:24.210Z,1.70
2023-05-21T17:53:51.548Z,1.73
2023-05-21T17:56:18.855Z,1.60
2023-05-21T17:58:46.104Z,1.90
2023-05-21T18:01:13.491Z,11.48
2023-05-21T18:03:40.776Z,96.50
2023-05-21T18:06:09.524Z,70.93
2023-05-21T18:08:37.010Z,10.63
2023-05-21T18:11:04.414Z,3.47
2023-05-21T18:13:31.739Z,7.32
2023-05-21T18:15:59.460Z,6.88
2023-05-21T18:18:26.640Z,46.33
2023-05-21T18:20:53.978Z,68.30
2023-05-21T18:23:21.083Z,39.03
2023-05-21T18:25:48.477Z,57.50
2023-05-21T18:28:15.835Z,22.85
2023-05-21T18:30:43.340Z,28.42
2023-05-21T18:33:11.771Z,12.07
2023-05-21T18:35:39.082Z,23.65
2023-05-21T18:38:10.189Z,13.65
2023-05-21T18:40:38.110Z,4.97
2023-05-21T18:43:06.900Z,57.05
2023-05-21T18:45:33.847Z,19.15
2023-05-21T18:48:01.240Z,6.20
2023-05-21T18:50:28.657Z,2.30
2023-05-21T18:52:58.912Z,2.60
2023-05-21T18:55:26.090Z,1.75
2023-05-21T18:57:53.469Z,1.90
2023-05-21T19:00:20.446Z,2.08
2023-05-21T19:02:47.478Z,1.73
2023-05-21T19:05:14.967Z,1.45
2023-05-21T19:07:42.682Z,1.88
2023-05-21T19:10:13.008Z,1.80
2023-05-21T19:12:42.427Z,2.10
2023-05-21T19:15:10.719Z,2.72
2023-05-21T19:17:40.147Z,4.25
2023-05-21T19:20:08.901Z,3.22
2023-05-21T19:22:37.700Z,2.97
2023-05-21T19:25:04.703Z,2.45
2023-05-21T19:27:31.965Z,1.60
2023-05-21T19:29:59.511Z,1.75
2023-05-21T19:32:26.867Z,1.73
2023-05-21T19:34:54.035Z,1.90
2023-05-21T19:37:21.511Z,1.70
2023-05-21T19:39:50.546Z,2.20
2023-05-21T19:42:21.839Z,3.55
2023-05-21T19:44:49.192Z,4.75
2023-05-21T19:47:16.604Z,4.53
2023-05-21T19:49:43.980Z,4.88
2023-05-21T19:52:12.489Z,6.47
2023-05-21T19:54:39.903Z,5.30
2023-05-21T19:57:07.094Z,4.85
2023-05-21T19:59:34.358Z,4.93
2023-05-21T20:02:01.602Z,3.92
2023-05-21T20:04:28.935Z,3.90
2023-05-21T20:06:56.189Z,4.40
2023-05-21T20:09:23.557Z,2.83
2023-05-21T20:11:50.891Z,2.30
2023-05-21T20:14:18.262Z,2.22
2023-05-21T20:16:47.557Z,2.27
2023-05-21T20:19:15.673Z,2.08
2023-05-21T20:21:43.332Z,2.55
2023-05-21T20:24:11.623Z,3.05
2023-05-21T20:26:40.396Z,3.00
2023-05-21T20:29:08.405Z,2.88
2023-05-21T20:31:35.920Z,3.40
2023-05-21T20:34:08.033Z,2.85
2023-05-21T20:36:36.415Z,2.97
2023-05-21T20:39:03.648Z,3.00
2023-05-21T20:41:36.271Z,3.92
2023-05-21T20:44:07.210Z,3.77
2023-05-21T20:46:39.029Z,4.25
2023-05-21T20:49:06.720Z,3.80
2023-05-21T20:51:33.894Z,4.88
2023-05-21T20:54:01.393Z,4.00
2023-05-21T20:56:41.447Z,3.75
2023-05-21T20:59:11.042Z,3.30
2023-05-21T21:01:39.614Z,3.20
2023-05-21T21:04:06.785Z,3.15
2023-05-21T21:06:34.377Z,4.10
2023-05-21T21:09:01.578Z,3.67
2023-05-21T21:11:28.844Z,3.00
2023-05-21T21:13:56.418Z,3.85
2023-05-21T21:16:23.847Z,3.25
2023-05-21T21:18:51.534Z,2.97
2023-05-21T21:21:19.047Z,3.22
2023-05-21T21:23:45.911Z,3.22
2023-05-21T21:26:13.330Z,3.17
2023-05-21T21:28:40.638Z,3.55
2023-05-21T21:31:08.137Z,2.85
2023-05-21T21:33:35.791Z,2.55
2023-05-21T21:36:03.593Z,2.90
2023-05-21T21:38:30.980Z,2.67
2023-05-21T21:40:57.775Z,3.33
2023-05-21T21:43:24.966Z,3.25
2023-05-21T21:45:52.395Z,3.80
2023-05-21T21:48:19.904Z,3.42
2023-05-21T21:50:47.441Z,3.35
2023-05-21T21:53:14.991Z,3.25
2023-05-21T21:55:42.152Z,2.92
2023-05-21T21:58:09.384Z,4.43
2023-05-21T22:00:37.501Z,3.20
2023-05-21T22:03:05.152Z,2.90
2023-05-21T22:05:33.046Z,3.40
2023-05-21T22:08:00.338Z,3.00
2023-05-21T22:10:27.781Z,3.45
2023-05-21T22:12:55.250Z,3.28
2023-05-21T22:15:25.586Z,3.08
2023-05-21T22:17:52.925Z,3.13
2023-05-21T22:20:20.851Z,3.00
2023-05-21T22:22:48.313Z,2.70
2023-05-21T22:25:15.770Z,3.20
2023-05-21T22:27:43.400Z,2.88
2023-05-21T22:30:14.316Z,3.17
2023-05-21T22:32:41.256Z,2.80
2023-05-21T22:35:09.739Z,3.00
2023-05-21T22:37:37.969Z,2.45
2023-05-21T22:40:09.329Z,3.33
2023-05-21T22:42:36.581Z,2.85
2023-05-21T22:45:04.518Z,2.75
2023-05-21T22:47:32.416Z,2.90
2023-05-21T22:50:00.878Z,2.90
2023-05-21T22:52:29.489Z,3.40
2023-05-21T22:54:58.357Z,2.78
2023-05-21T22:57:25.599Z,2.80
2023-05-21T22:59:52.874Z,2.70
2023-05-21T23:02:20.418Z,2.60
2023-05-21T23:04:48.888Z,2.60
2023-05-21T23:07:16.587Z,2.78
2023-05-21T23:09:43.312Z,2.60
2023-05-21T23:12:10.879Z,2.88
2023-05-21T23:14:38.070Z,2.50
2023-05-21T23:17:06.124Z,3.15
2023-05-21T23:19:33.118Z,3.10
2023-05-21T23:22:00.932Z,2.53
2023-05-21T23:24:29.870Z,2.80
2023-05-21T23:27:02.293Z,2.55
2023-05-21T23:29:30.905Z,3.17
2023-05-21T23:31:58.596Z,2.97
2023-05-21T23:34:26.055Z,3.13
2023-05-21T23:36:52.876Z,2.85
2023-05-21T23:39:20.060Z,2.47
2023-05-21T23:41:46.874Z,2.50
2023-05-21T23:44:13.965Z,2.30
2023-05-21T23:46:41.307Z,2.42
2023-05-21T23:49:08.611Z,2.80
2023-05-21T23:51:36.086Z,2.85
2023-05-21T23:54:03.639Z,2.65
2023-05-21T23:56:31.552Z,2.53
2023-05-21T23:58:58.849Z,2.15
